Calgary International Airport
CYYC : now visible

Airfield :











YOU CAN JOIN US ON...

 
LOGIN :

Register | Disclaimer

   EN    FR    IT 

 









Legend :    VFR   Marginal VFR   IFR   Intensive IFR   Very Intensive IFR
Visi :
Ceiling :
>= 8 km
>= 3000ft
5 to 8 km
1000 to 3000 ft
1500m to 5 km
500 to 1000 ft
800 to 1500m
200 to 500 ft
< 800m
< 200 ft
Symbols :   Thunderstorms  Fog  Heavy snow  Heavy precipitations  Wind > 20 kt






- Airport Elevation : 3557 ft
- IATA code : YYC


CYYC - Calgary International

CURRENT METAR :
  • 261400Z 20003KT 15SM FEW210 M05/M09 A2991 RMK CI1 FROIN SLP180

EXPIRED METARs :
  • 261300Z 20003KT 15SM FEW190 FEW240 M06/M10 A2992 RMK AS1CI2 AS TR SLP183
  • 261200Z 19003KT 15SM FEW190 SCT240 M04/M09 A2993 RMK AS1CI2 SLP180

TAF TAF CYYC
Valid from the 26 at 15:00 until the 27 at 12:00 UTC


261438Z 2615/2712 VRB03KT P6SM FEW200
FM261700 22008KT P6SM SCT140 BKN220
FM262100 20008KT P6SM BKN140
FM270300 26010KT P6SM SCT140 RMK NXT FCST BY 261800Z



MET'MAP, your aeronautical weather chart ! - Copyright ORBIFLY December 2007 - Disclaimer

ORBIFLY MET'MAP TEAM :

Programming & Development : Alexandra Zaïnal
Concept & original design : Baudouin d'Aumeries
Assistance for programming : Marc-Olivier Méhu
Technical & hardware support : Manuel Goepfert

Contact : metmap@orbifly.com




SOURCES & CREDITS :

   NOAA       Earth
Advisory